createdAt,value
2023-05-21T00:03:34.702Z,62.32
2023-05-21T00:06:03.469Z,62.37
2023-05-21T00:08:33.072Z,62.46
2023-05-21T00:11:01.378Z,62.50
2023-05-21T00:13:30.042Z,62.28
2023-05-21T00:15:58.195Z,62.45
2023-05-21T00:18:27.060Z,62.19
2023-05-21T00:20:56.196Z,62.25
2023-05-21T00:23:25.080Z,62.17
2023-05-21T00:25:53.979Z,62.12
2023-05-21T00:28:22.708Z,62.10
2023-05-21T00:30:51.592Z,61.95
2023-05-21T00:33:20.041Z,61.92
2023-05-21T00:35:48.325Z,61.78
2023-05-21T00:38:16.671Z,61.76
2023-05-21T00:40:45.933Z,61.74
2023-05-21T00:43:14.187Z,61.76
2023-05-21T00:45:42.685Z,61.63
2023-05-21T00:48:13.794Z,61.77
2023-05-21T00:50:43.326Z,61.85
2023-05-21T00:53:11.656Z,61.80
2023-05-21T00:55:40.871Z,61.53
2023-05-21T00:58:09.104Z,61.48
2023-05-21T01:00:37.314Z,61.34
2023-05-21T01:03:06.422Z,61.21
2023-05-21T01:05:36.701Z,61.33
2023-05-21T01:08:06.203Z,61.47
2023-05-21T01:10:34.408Z,61.55
2023-05-21T01:13:03.215Z,61.57
2023-05-21T01:15:31.772Z,61.69
2023-05-21T01:18:00.260Z,61.87
2023-05-21T01:20:29.880Z,61.84
2023-05-21T01:22:58.229Z,61.84
2023-05-21T01:25:26.408Z,61.87
2023-05-21T01:27:54.833Z,61.90
2023-05-21T01:30:24.671Z,61.89
2023-05-21T01:33:03.673Z,61.84
2023-05-21T01:35:42.433Z,61.86
2023-05-21T01:38:28.901Z,61.91
2023-05-21T01:41:02.211Z,61.82
2023-05-21T01:43:34.933Z,61.90
2023-05-21T01:46:04.095Z,61.72
2023-05-21T01:48:32.764Z,61.71
2023-05-21T01:51:03.584Z,61.69
2023-05-21T01:53:32.338Z,61.66
2023-05-21T01:56:00.570Z,61.64
2023-05-21T01:58:29.054Z,61.62
2023-05-21T02:00:57.437Z,61.74
2023-05-21T02:03:27.265Z,61.70
2023-05-21T02:05:55.966Z,61.69
2023-05-21T02:08:25.308Z,61.88
2023-05-21T02:10:53.505Z,61.89
2023-05-21T02:13:23.545Z,61.85
2023-05-21T02:15:54.581Z,61.88
2023-05-21T02:18:23.301Z,61.92
2023-05-21T02:20:51.571Z,62.02
2023-05-21T02:23:19.785Z,62.14
2023-05-21T02:25:48.581Z,62.14
2023-05-21T02:28:16.834Z,62.06
2023-05-21T02:30:44.999Z,62.10
2023-05-21T02:33:16.559Z,61.92
2023-05-21T02:35:44.814Z,61.99
2023-05-21T02:38:13.021Z,61.90
2023-05-21T02:40:41.527Z,61.92
2023-05-21T02:43:09.701Z,62.01
2023-05-21T02:45:38.493Z,61.87
2023-05-21T02:48:07.247Z,61.99
2023-05-21T02:50:36.029Z,62.09
2023-05-21T02:53:04.229Z,62.03
2023-05-21T02:55:32.733Z,61.78
2023-05-21T02:58:00.988Z,61.71
2023-05-21T03:00:29.248Z,61.88
2023-05-21T03:02:57.680Z,61.76
2023-05-21T03:05:25.979Z,61.89
2023-05-21T03:07:54.411Z,61.70
2023-05-21T03:10:22.708Z,61.75
2023-05-21T03:12:50.964Z,61.76
2023-05-21T03:15:19.189Z,61.78
2023-05-21T03:17:48.099Z,61.77
2023-05-21T03:20:16.786Z,61.76
2023-05-21T03:22:46.192Z,61.85
2023-05-21T03:25:15.636Z,62.06
2023-05-21T03:27:43.757Z,61.89
2023-05-21T03:30:12.494Z,61.89
2023-05-21T03:32:40.830Z,61.88
2023-05-21T03:35:09.110Z,62.05
2023-05-21T03:37:37.316Z,62.03
2023-05-21T03:40:08.003Z,62.06
2023-05-21T03:42:36.357Z,62.41
2023-05-21T03:45:05.399Z,62.31
2023-05-21T03:47:33.661Z,62.48
2023-05-21T03:50:03.506Z,62.64
2023-05-21T03:52:32.000Z,62.55
2023-05-21T03:55:00.538Z,62.55
2023-05-21T03:57:28.759Z,62.61
2023-05-21T03:59:56.979Z,62.64
2023-05-21T04:02:28.586Z,62.78
2023-05-21T04:04:57.933Z,62.66
2023-05-21T04:07:26.302Z,62.64
2023-05-21T04:09:54.784Z,62.63
2023-05-21T04:12:22.992Z,62.61
2023-05-21T04:14:51.353Z,62.68
2023-05-21T04:17:20.145Z,62.68
2023-05-21T04:19:49.072Z,62.70
2023-05-21T04:22:17.263Z,62.51
2023-05-21T04:24:45.718Z,62.61
2023-05-21T04:27:13.916Z,62.60
2023-05-21T04:29:42.260Z,62.58
2023-05-21T04:32:10.702Z,62.62
2023-05-21T04:34:38.877Z,62.63
2023-05-21T04:37:07.029Z,62.61
2023-05-21T04:39:35.629Z,62.73
2023-05-21T04:42:03.978Z,62.83
2023-05-21T04:44:32.226Z,63.05
2023-05-21T04:47:00.570Z,63.07
2023-05-21T04:49:28.834Z,63.06
2023-05-21T04:51:57.181Z,63.13
2023-05-21T04:54:25.635Z,63.20
2023-05-21T04:56:54.144Z,63.31
2023-05-21T04:59:22.356Z,63.41
2023-05-21T05:01:50.758Z,63.58
2023-05-21T05:04:19.760Z,63.69
2023-05-21T05:06:47.940Z,63.79
2023-05-21T05:09:16.557Z,63.81
2023-05-21T05:11:45.132Z,63.83
2023-05-21T05:14:13.438Z,64.00
2023-05-21T05:16:41.708Z,63.91
2023-05-21T05:19:10.118Z,63.93
2023-05-21T05:21:38.675Z,63.90
2023-05-21T05:24:07.036Z,64.01
2023-05-21T05:26:35.182Z,64.06
2023-05-21T05:29:03.729Z,64.02
2023-05-21T05:31:31.974Z,64.06
2023-05-21T05:34:00.272Z,64.15
2023-05-21T05:36:28.556Z,64.40
2023-05-21T05:38:57.339Z,64.42
2023-05-21T05:41:25.532Z,64.35
2023-05-21T05:43:54.280Z,64.22
2023-05-21T05:46:22.895Z,64.18
2023-05-21T05:48:51.717Z,64.07
2023-05-21T05:51:19.887Z,64.14
2023-05-21T05:53:48.483Z,64.01
2023-05-21T05:56:16.702Z,63.89
2023-05-21T05:58:44.918Z,64.05
2023-05-21T06:01:13.455Z,64.06
2023-05-21T06:03:42.334Z,64.25
2023-05-21T06:06:11.139Z,64.37
2023-05-21T06:08:39.884Z,64.39
2023-05-21T06:11:09.010Z,64.33
2023-05-21T06:13:37.228Z,64.21
2023-05-21T06:16:05.991Z,64.15
2023-05-21T06:18:34.341Z,64.27
2023-05-21T06:21:02.484Z,64.33
2023-05-21T06:23:30.775Z,64.24
2023-05-21T06:25:59.030Z,64.28
2023-05-21T06:28:27.165Z,64.24
2023-05-21T06:30:55.362Z,64.17
2023-05-21T06:33:24.575Z,63.82
2023-05-21T06:35:53.130Z,64.08
2023-05-21T06:38:21.984Z,64.15
2023-05-21T06:40:50.636Z,64.37
2023-05-21T06:43:18.765Z,64.37
2023-05-21T06:45:46.993Z,64.42
2023-05-21T06:48:15.166Z,63.88
2023-05-21T06:50:44.113Z,64.08
2023-05-21T06:53:12.318Z,64.12
2023-05-21T06:55:40.343Z,63.80
2023-05-21T06:58:08.464Z,63.82
2023-05-21T07:00:37.137Z,63.21
2023-05-21T07:03:05.468Z,63.25
2023-05-21T07:05:33.867Z,63.31
2023-05-21T07:08:02.271Z,63.14
2023-05-21T07:10:30.457Z,62.94
2023-05-21T07:12:58.705Z,63.04
2023-05-21T07:15:26.985Z,62.88
2023-05-21T07:17:55.227Z,62.92
2023-05-21T07:20:23.338Z,62.89
2023-05-21T07:22:52.135Z,62.71
2023-05-21T07:25:20.624Z,62.62
2023-05-21T07:27:49.114Z,62.76
2023-05-21T07:30:17.386Z,62.60
2023-05-21T07:32:45.536Z,62.52
2023-05-21T07:35:13.879Z,62.35
2023-05-21T07:37:42.531Z,62.17
2023-05-21T07:40:11.153Z,62.29
2023-05-21T07:42:40.163Z,62.37
2023-05-21T07:45:08.562Z,62.41
2023-05-21T07:47:37.273Z,62.26
2023-05-21T07:50:06.591Z,62.07
2023-05-21T07:52:34.847Z,62.15
2023-05-21T07:55:03.126Z,62.58
2023-05-21T07:57:31.373Z,62.82
2023-05-21T07:59:59.941Z,62.72
2023-05-21T08:02:28.167Z,62.54
2023-05-21T08:04:56.472Z,62.62
2023-05-21T08:07:25.161Z,62.63
2023-05-21T08:09:53.843Z,62.38
2023-05-21T08:12:21.960Z,62.23
2023-05-21T08:14:50.389Z,61.77
2023-05-21T08:17:18.509Z,61.48
2023-05-21T08:19:46.603Z,61.15
2023-05-21T08:22:15.005Z,60.96
2023-05-21T08:24:43.102Z,61.01
2023-05-21T08:27:11.402Z,60.73
2023-05-21T08:29:40.291Z,60.90
2023-05-21T08:32:08.921Z,60.44
2023-05-21T08:34:37.057Z,59.44
2023-05-21T08:37:05.551Z,59.30
2023-05-21T08:39:33.912Z,59.40
2023-05-21T08:42:35.190Z,59.35
2023-05-21T08:45:06.744Z,59.22
2023-05-21T08:47:36.666Z,59.06
2023-05-21T08:50:09.459Z,58.70
2023-05-21T08:52:38.248Z,58.22
2023-05-21T08:55:08.342Z,58.11
2023-05-21T08:57:38.232Z,57.68
2023-05-21T09:00:09.536Z,56.69
2023-05-21T09:02:39.353Z,56.37
2023-05-21T09:05:09.601Z,55.93
2023-05-21T09:07:49.300Z,55.90
2023-05-21T09:10:24.938Z,55.73
2023-05-21T09:12:54.434Z,55.39
2023-05-21T09:15:22.973Z,55.18
2023-05-21T09:17:51.581Z,54.73
2023-05-21T09:20:26.452Z,54.10
2023-05-21T09:22:54.870Z,53.89
2023-05-21T09:25:27.347Z,52.99
2023-05-21T09:27:56.960Z,53.23
2023-05-21T09:30:35.699Z,53.08
2023-05-21T09:33:04.589Z,52.64
2023-05-21T09:35:33.311Z,52.71
2023-05-21T09:38:01.505Z,53.23
2023-05-21T09:40:30.425Z,52.87
2023-05-21T09:42:59.014Z,52.30
2023-05-21T09:45:28.868Z,52.42
2023-05-21T09:47:57.380Z,52.22
2023-05-21T09:50:27.090Z,52.25
2023-05-21T09:52:55.895Z,51.81
2023-05-21T09:55:29.313Z,51.85
2023-05-21T09:57:58.922Z,52.14
2023-05-21T10:00:29.078Z,50.98
2023-05-21T10:03:01.493Z,52.00
2023-05-21T10:05:31.127Z,52.88
2023-05-21T10:08:04.654Z,53.48
2023-05-21T10:10:33.082Z,53.35
2023-05-21T10:13:05.981Z,52.91
2023-05-21T10:15:50.774Z,51.93
2023-05-21T10:18:22.900Z,53.07
2023-05-21T10:20:52.365Z,52.36
2023-05-21T10:23:25.531Z,52.87
2023-05-21T10:25:55.200Z,52.84
2023-05-21T10:28:26.862Z,51.01
2023-05-21T10:30:55.381Z,50.04
2023-05-21T10:33:23.923Z,51.19
2023-05-21T10:35:54.675Z,51.36
2023-05-21T10:38:23.303Z,51.63
2023-05-21T10:40:53.717Z,51.18
2023-05-21T10:43:40.637Z,51.11
2023-05-21T10:46:42.402Z,51.00
2023-05-21T10:49:32.833Z,50.76
2023-05-21T10:52:10.001Z,50.02
2023-05-21T10:54:49.386Z,51.31
2023-05-21T10:57:47.014Z,51.29
2023-05-21T11:00:17.758Z,51.22
2023-05-21T11:02:47.085Z,50.63
2023-05-21T11:05:15.384Z,51.33
2023-05-21T11:07:59.041Z,50.75
2023-05-21T11:10:30.807Z,51.31
2023-05-21T11:13:15.832Z,50.84
2023-05-21T11:16:16.863Z,51.43
2023-05-21T11:18:45.584Z,51.83
2023-05-21T11:21:18.436Z,51.90
2023-05-21T11:23:54.422Z,52.05
2023-05-21T11:26:27.953Z,51.96
2023-05-21T11:29:08.966Z,51.59
2023-05-21T11:31:37.423Z,51.99
2023-05-21T11:34:18.694Z,52.07
2023-05-21T11:36:48.749Z,51.91
2023-05-21T11:39:19.793Z,50.95
2023-05-21T11:41:58.880Z,50.67
2023-05-21T11:44:42.249Z,50.85
2023-05-21T11:47:18.420Z,51.49
2023-05-21T11:49:47.147Z,51.39
2023-05-21T11:52:15.686Z,50.85
2023-05-21T11:54:46.235Z,50.26
2023-05-21T11:57:19.000Z,50.59
2023-05-21T11:59:48.895Z,50.57
2023-05-21T12:02:22.585Z,50.43
2023-05-21T12:04:51.531Z,50.66
2023-05-21T12:07:20.778Z,50.99
2023-05-21T12:09:50.524Z,50.91
2023-05-21T12:12:21.290Z,51.19
2023-05-21T12:14:50.913Z,51.50
2023-05-21T12:17:26.380Z,51.88
2023-05-21T12:19:56.256Z,52.09
2023-05-21T12:22:26.804Z,52.55
2023-05-21T12:24:56.328Z,51.93
2023-05-21T12:27:24.737Z,50.57
2023-05-21T12:29:53.668Z,50.74
2023-05-21T12:32:22.491Z,51.13
2023-05-21T12:34:52.699Z,51.32
2023-05-21T12:37:24.833Z,51.17
2023-05-21T12:39:55.600Z,51.72
2023-05-21T12:42:25.297Z,51.94
2023-05-21T12:44:54.289Z,52.30
2023-05-21T12:47:27.375Z,52.75
2023-05-21T12:50:00.757Z,52.61
2023-05-21T12:52:30.098Z,52.67
2023-05-21T12:54:58.977Z,52.59
2023-05-21T12:57:37.860Z,52.06
2023-05-21T13:00:08.205Z,51.75
2023-05-21T13:02:42.426Z,51.75
2023-05-21T13:05:17.944Z,51.60
2023-05-21T13:07:47.997Z,51.92
2023-05-21T13:10:17.003Z,51.90
2023-05-21T13:12:45.527Z,52.40
2023-05-21T13:15:14.794Z,52.12
2023-05-21T13:17:43.059Z,51.64
2023-05-21T13:20:22.113Z,51.67
2023-05-21T13:22:52.306Z,51.83
2023-05-21T13:25:23.647Z,52.19
2023-05-21T13:27:53.258Z,52.31
2023-05-21T13:30:22.198Z,52.37
2023-05-21T13:32:50.724Z,52.85
2023-05-21T13:35:20.872Z,53.14
2023-05-21T13:37:49.719Z,53.04
2023-05-21T13:40:19.091Z,53.09
2023-05-21T13:42:49.318Z,53.26
2023-05-21T13:45:23.051Z,52.88
2023-05-21T13:47:51.389Z,52.06
2023-05-21T13:50:20.740Z,51.46
2023-05-21T13:52:49.170Z,51.50
2023-05-21T13:55:17.635Z,51.36
2023-05-21T13:57:47.544Z,51.62
2023-05-21T14:00:18.728Z,52.00
2023-05-21T14:02:48.716Z,52.40
2023-05-21T14:05:17.552Z,52.47
2023-05-21T14:07:45.870Z,52.63
2023-05-21T14:10:14.492Z,52.24
2023-05-21T14:12:42.776Z,52.17
2023-05-21T14:15:11.603Z,51.95
2023-05-21T14:17:40.248Z,51.75
2023-05-21T14:20:09.354Z,51.61
2023-05-21T14:22:38.953Z,51.71
2023-05-21T14:25:08.995Z,52.23
2023-05-21T14:27:37.953Z,52.66
2023-05-21T14:30:09.795Z,53.01
2023-05-21T14:32:38.083Z,52.34
2023-05-21T14:35:06.776Z,51.23
2023-05-21T14:37:35.078Z,51.69
2023-05-21T14:40:04.432Z,52.78
2023-05-21T14:42:32.993Z,52.38
2023-05-21T14:45:16.886Z,52.26
2023-05-21T14:47:47.001Z,52.23
2023-05-21T14:50:16.234Z,51.93
2023-05-21T14:52:44.844Z,52.09
2023-05-21T14:55:13.119Z,52.77
2023-05-21T14:57:41.952Z,53.37
2023-05-21T15:00:12.029Z,53.54
2023-05-21T15:02:40.838Z,53.15
2023-05-21T15:05:09.524Z,52.70
2023-05-21T15:07:37.632Z,52.96
2023-05-21T15:10:06.521Z,53.45
2023-05-21T15:12:34.894Z,52.95
2023-05-21T15:15:03.192Z,53.55
2023-05-21T15:17:31.607Z,53.36
2023-05-21T15:20:00.299Z,52.53
2023-05-21T15:22:28.553Z,52.41
2023-05-21T15:24:56.892Z,51.76
2023-05-21T15:27:25.611Z,51.84
2023-05-21T15:29:54.504Z,51.45
2023-05-21T15:32:22.937Z,51.51
2023-05-21T15:34:51.244Z,50.42
2023-05-21T15:37:20.053Z,51.02
2023-05-21T15:39:48.802Z,51.66
2023-05-21T15:42:17.380Z,52.05
2023-05-21T15:44:45.803Z,51.92
2023-05-21T15:47:14.550Z,51.99
2023-05-21T15:49:42.842Z,51.79
2023-05-21T15:52:11.113Z,51.67
2023-05-21T15:54:39.415Z,51.69
2023-05-21T15:57:08.901Z,52.02
2023-05-21T15:59:37.202Z,52.09
2023-05-21T16:02:05.779Z,52.63
2023-05-21T16:04:35.343Z,52.77
2023-05-21T16:07:03.857Z,52.21
2023-05-21T16:09:32.212Z,52.67
2023-05-21T16:12:00.808Z,53.28
2023-05-21T16:14:29.092Z,53.33
2023-05-21T16:16:57.437Z,52.99
2023-05-21T16:19:25.730Z,53.47
2023-05-21T16:21:55.304Z,53.20
2023-05-21T16:24:23.555Z,53.40
2023-05-21T16:26:51.989Z,53.08
2023-05-21T16:29:21.992Z,53.29
2023-05-21T16:31:50.464Z,53.64
2023-05-21T16:34:19.017Z,53.54
2023-05-21T16:36:47.224Z,53.74
2023-05-21T16:39:15.599Z,54.03
2023-05-21T16:41:44.461Z,54.50
2023-05-21T16:44:12.965Z,54.59
2023-05-21T16:46:43.490Z,54.81
2023-05-21T16:49:12.233Z,54.84
2023-05-21T16:51:40.489Z,54.83
2023-05-21T16:54:08.713Z,55.05
2023-05-21T16:56:37.337Z,54.86
2023-05-21T16:59:05.577Z,54.99
2023-05-21T17:01:35.175Z,54.99
2023-05-21T17:04:03.860Z,55.21
2023-05-21T17:06:32.434Z,55.41
2023-05-21T17:09:01.059Z,55.53
2023-05-21T17:11:31.347Z,55.34
2023-05-21T17:13:59.585Z,55.32
2023-05-21T17:16:28.585Z,55.42
2023-05-21T17:18:58.944Z,55.44
2023-05-21T17:21:27.243Z,55.66
2023-05-21T17:23:55.761Z,55.49
2023-05-21T17:26:23.994Z,55.62
2023-05-21T17:28:52.233Z,55.71
2023-05-21T17:31:20.775Z,56.03
2023-05-21T17:33:49.137Z,56.51
2023-05-21T17:36:17.455Z,56.87
2023-05-21T17:38:45.674Z,57.06
2023-05-21T17:41:13.984Z,57.13
2023-05-21T17:43:42.313Z,57.39
2023-05-21T17:46:10.557Z,58.05
2023-05-21T17:48:38.960Z,58.39
2023-05-21T17:51:07.189Z,58.47
2023-05-21T17:53:35.302Z,58.57
2023-05-21T17:56:04.103Z,58.51
2023-05-21T17:58:32.219Z,58.90
2023-05-21T18:01:00.566Z,58.99
2023-05-21T18:03:28.744Z,59.20
2023-05-21T18:05:56.966Z,58.94
2023-05-21T18:08:25.121Z,59.03
2023-05-21T18:10:53.267Z,59.51
2023-05-21T18:13:21.429Z,59.48
2023-05-21T18:15:49.812Z,60.09
2023-05-21T18:18:21.378Z,59.99
2023-05-21T18:20:50.713Z,59.67
2023-05-21T18:23:19.426Z,59.97
2023-05-21T18:25:47.489Z,59.86
2023-05-21T18:28:15.553Z,59.71
2023-05-21T18:30:43.856Z,60.20
2023-05-21T18:33:12.172Z,60.69
2023-05-21T18:35:41.928Z,60.92
2023-05-21T18:38:11.520Z,60.78
2023-05-21T18:40:39.727Z,60.85
2023-05-21T18:43:07.899Z,61.33
2023-05-21T18:45:36.348Z,61.33
2023-05-21T18:48:04.706Z,61.31
2023-05-21T18:50:32.895Z,61.06
2023-05-21T18:53:01.539Z,61.56
2023-05-21T18:55:29.756Z,61.78
2023-05-21T18:57:57.979Z,61.81
2023-05-21T19:00:26.335Z,61.90
2023-05-21T19:02:56.007Z,62.13
2023-05-21T19:05:24.187Z,62.26
2023-05-21T19:07:52.753Z,62.13
2023-05-21T19:10:20.898Z,62.36
2023-05-21T19:12:49.015Z,63.09
2023-05-21T19:15:17.239Z,63.50
2023-05-21T19:17:45.812Z,63.40
2023-05-21T19:20:24.032Z,63.53
2023-05-21T19:22:52.240Z,63.58
2023-05-21T19:25:20.654Z,64.08
2023-05-21T19:27:49.265Z,64.23
2023-05-21T19:30:17.399Z,63.69
2023-05-21T19:32:46.381Z,64.02
2023-05-21T19:35:15.986Z,64.07
2023-05-21T19:37:44.186Z,64.30
2023-05-21T19:40:12.644Z,64.64
2023-05-21T19:42:40.892Z,65.07
2023-05-21T19:45:09.702Z,65.36
2023-05-21T19:47:38.442Z,65.56
2023-05-21T19:50:08.117Z,65.44
2023-05-21T19:52:38.559Z,65.75
2023-05-21T19:55:07.001Z,66.21
2023-05-21T19:57:35.528Z,66.18
2023-05-21T20:00:04.435Z,65.84
2023-05-21T20:02:32.557Z,65.64
2023-05-21T20:05:01.025Z,65.72
2023-05-21T20:07:29.614Z,66.00
2023-05-21T20:09:57.702Z,66.09
2023-05-21T20:12:25.802Z,66.15
2023-05-21T20:14:53.902Z,66.22
2023-05-21T20:17:22.240Z,66.35
2023-05-21T20:19:50.567Z,66.60
2023-05-21T20:22:18.625Z,66.74
2023-05-21T20:24:46.706Z,66.58
2023-05-21T20:27:15.321Z,66.51
2023-05-21T20:29:43.566Z,66.74
2023-05-21T20:32:11.686Z,66.73
2023-05-21T20:34:47.305Z,66.55
2023-05-21T20:37:22.714Z,66.45
2023-05-21T20:39:50.998Z,66.50
2023-05-21T20:42:19.588Z,66.45
2023-05-21T20:44:47.644Z,66.68
2023-05-21T20:47:16.369Z,66.52
2023-05-21T20:49:44.575Z,66.58
2023-05-21T20:52:12.850Z,66.61
2023-05-21T20:54:41.030Z,66.47
2023-05-21T20:57:09.752Z,66.20
2023-05-21T20:59:37.812Z,66.00
2023-05-21T21:02:10.905Z,66.17
2023-05-21T21:04:39.144Z,66.39
2023-05-21T21:07:07.141Z,66.50
2023-05-21T21:09:35.888Z,66.46
2023-05-21T21:12:21.201Z,66.72
2023-05-21T21:14:53.593Z,66.54
2023-05-21T21:17:21.725Z,66.47
2023-05-21T21:19:50.337Z,66.69
2023-05-21T21:22:18.609Z,66.86
2023-05-21T21:24:48.085Z,66.79
2023-05-21T21:27:16.722Z,66.76
2023-05-21T21:29:45.931Z,66.55
2023-05-21T21:32:14.036Z,66.46
2023-05-21T21:34:42.082Z,66.56
2023-05-21T21:37:10.622Z,66.72
2023-05-21T21:39:39.310Z,66.89
2023-05-21T21:42:07.437Z,66.94
2023-05-21T21:44:36.130Z,66.99
2023-05-21T21:47:04.429Z,67.22
2023-05-21T21:49:32.487Z,67.37
2023-05-21T21:52:00.979Z,67.31
2023-05-21T21:54:29.349Z,67.27
2023-05-21T21:56:57.365Z,67.37
2023-05-21T21:59:25.670Z,67.46
2023-05-21T22:01:53.780Z,67.59
2023-05-21T22:04:22.294Z,67.61
2023-05-21T22:06:50.733Z,67.60
2023-05-21T22:09:18.959Z,67.57
2023-05-21T22:11:47.785Z,67.26
2023-05-21T22:14:16.053Z,67.25
2023-05-21T22:16:44.279Z,67.36
2023-05-21T22:19:12.809Z,66.68
2023-05-21T22:21:41.386Z,66.85
2023-05-21T22:24:20.610Z,66.89
2023-05-21T22:26:53.676Z,67.08
2023-05-21T22:29:21.895Z,67.32
2023-05-21T22:31:52.986Z,67.48
2023-05-21T22:34:21.268Z,67.54
2023-05-21T22:36:49.356Z,67.82
2023-05-21T22:39:17.981Z,67.99
2023-05-21T22:41:46.458Z,67.98
2023-05-21T22:44:14.661Z,67.95
2023-05-21T22:46:43.845Z,67.83
2023-05-21T22:49:12.392Z,67.76
2023-05-21T22:51:40.565Z,67.75
2023-05-21T22:54:08.934Z,67.74
2023-05-21T22:56:37.401Z,67.72
2023-05-21T22:59:05.617Z,67.64
2023-05-21T23:01:33.862Z,67.56
2023-05-21T23:04:02.181Z,67.37
2023-05-21T23:06:30.450Z,67.27
2023-05-21T23:08:58.657Z,67.15
2023-05-21T23:11:27.411Z,67.07
2023-05-21T23:13:55.570Z,66.94
2023-05-21T23:16:23.865Z,66.34
2023-05-21T23:18:52.210Z,66.27
2023-05-21T23:21:20.570Z,66.20
2023-05-21T23:23:48.846Z,65.96
2023-05-21T23:26:17.333Z,65.74
2023-05-21T23:28:45.465Z,65.79
2023-05-21T23:31:13.727Z,65.85
2023-05-21T23:33:42.175Z,65.90
2023-05-21T23:36:10.336Z,66.03
2023-05-21T23:38:38.527Z,66.14
2023-05-21T23:41:07.341Z,66.26
2023-05-21T23:43:35.660Z,67.61
2023-05-21T23:46:03.854Z,68.76
2023-05-21T23:48:33.879Z,69.03
2023-05-21T23:51:02.036Z,69.59
2023-05-21T23:53:30.242Z,69.92
2023-05-21T23:55:58.461Z,69.59
2023-05-21T23:58:26.637Z,69.40
